createdAt,value
2023-04-10T00:00:00.340Z,6.63
2023-04-10T00:02:29.361Z,6.71
2023-04-10T00:04:57.269Z,6.45
2023-04-10T00:07:25.174Z,6.59
2023-04-10T00:09:52.656Z,6.57
2023-04-10T00:12:37.996Z,6.56
2023-04-10T00:15:37.650Z,6.26
2023-04-10T00:18:24.801Z,6.73
2023-04-10T00:21:07.174Z,6.33
2023-04-10T00:23:51.509Z,6.36
2023-04-10T00:26:20.973Z,6.37
2023-04-10T00:28:48.897Z,6.29
2023-04-10T00:31:16.437Z,6.33
2023-04-10T00:33:44.204Z,6.05
2023-04-10T00:36:13.046Z,6.18
2023-04-10T00:38:41.607Z,6.28
2023-04-10T00:41:10.023Z,6.34
2023-04-10T00:43:39.578Z,6.35
2023-04-10T00:46:07.269Z,6.21
2023-04-10T00:48:35.927Z,6.25
2023-04-10T00:51:04.435Z,6.44
2023-04-10T00:53:31.948Z,6.49
2023-04-10T00:55:59.596Z,6.49
2023-04-10T00:58:27.532Z,6.55
2023-04-10T01:00:55.604Z,6.65
2023-04-10T01:03:23.899Z,6.81
2023-04-10T01:06:06.839Z,6.44
2023-04-10T01:08:43.348Z,6.14
2023-04-10T01:11:13.578Z,6.23
2023-04-10T01:13:48.795Z,6.28
2023-04-10T01:16:19.807Z,6.16
2023-04-10T01:18:53.232Z,6.14
2023-04-10T01:21:23.955Z,6.08
2023-04-10T01:23:54.631Z,6.26
2023-04-10T01:26:41.624Z,6.23
2023-04-10T01:29:10.024Z,6.10
2023-04-10T01:31:39.428Z,6.23
2023-04-10T01:34:20.054Z,6.26
2023-04-10T01:36:53.968Z,6.35
2023-04-10T01:39:22.299Z,6.50
2023-04-10T01:41:51.914Z,6.48
2023-04-10T01:44:21.819Z,6.47
2023-04-10T01:46:50.100Z,6.52
2023-04-10T01:49:17.812Z,6.49
2023-04-10T01:51:45.255Z,6.50
2023-04-10T01:54:14.211Z,6.51
2023-04-10T01:56:42.748Z,6.67
2023-04-10T01:59:12.615Z,6.75
2023-04-10T02:01:41.029Z,6.53
2023-04-10T02:04:08.930Z,6.70
2023-04-10T02:07:03.826Z,6.55
2023-04-10T02:09:52.255Z,6.66
2023-04-10T02:12:24.246Z,6.64
2023-04-10T02:14:51.905Z,6.68
2023-04-10T02:17:22.033Z,6.79
2023-04-10T02:19:51.813Z,6.60
2023-04-10T02:22:19.285Z,6.55
2023-04-10T02:24:46.654Z,6.67
2023-04-10T02:27:14.499Z,6.63
2023-04-10T02:29:42.535Z,6.65
2023-04-10T02:32:10.813Z,6.69
2023-04-10T02:34:39.564Z,6.48
2023-04-10T02:37:07.028Z,6.23
2023-04-10T02:39:35.150Z,6.44
2023-04-10T02:42:02.843Z,6.46
2023-04-10T02:44:30.967Z,6.49
2023-04-10T02:46:58.765Z,6.51
2023-04-10T02:49:27.316Z,6.53
2023-04-10T02:51:54.835Z,6.40
2023-04-10T02:54:22.755Z,6.40
2023-04-10T02:56:50.494Z,6.90
2023-04-10T02:59:19.259Z,6.66
2023-04-10T03:01:47.386Z,6.56
2023-04-10T03:04:18.015Z,6.47
2023-04-10T03:09:24.558Z,6.43
2023-04-10T03:11:54.183Z,6.37
2023-04-10T03:14:23.383Z,6.18
2023-04-10T03:16:50.712Z,6.35
2023-04-10T03:19:18.237Z,6.31
2023-04-10T03:21:57.708Z,6.10
2023-04-10T03:24:26.627Z,6.14
2023-04-10T03:26:54.908Z,6.24
2023-04-10T03:29:23.681Z,6.21
2023-04-10T03:31:51.183Z,6.24
2023-04-10T03:34:20.721Z,6.30
2023-04-10T03:36:48.896Z,6.12
2023-04-10T03:39:17.055Z,6.21
2023-04-10T03:41:45.355Z,6.22
2023-04-10T03:44:14.159Z,6.10
2023-04-10T03:46:41.618Z,6.06
2023-04-10T03:49:09.571Z,6.06
2023-04-10T03:51:38.077Z,5.92
2023-04-10T03:54:08.699Z,6.01
2023-04-10T03:56:37.310Z,5.93
2023-04-10T03:59:06.389Z,5.93
2023-04-10T04:01:35.939Z,5.86
2023-04-10T04:04:04.626Z,5.73
2023-04-10T04:06:38.853Z,5.76
2023-04-10T04:09:07.000Z,5.74
2023-04-10T04:11:35.447Z,5.88
2023-04-10T04:14:03.853Z,5.93
2023-04-10T04:16:35.132Z,5.95
2023-04-10T04:19:03.814Z,5.84
2023-04-10T04:21:34.976Z,5.93
2023-04-10T04:24:03.084Z,5.65
2023-04-10T04:26:31.442Z,5.78
2023-04-10T04:29:01.430Z,5.85
2023-04-10T04:31:33.461Z,5.82
2023-04-10T04:34:04.085Z,5.68
2023-04-10T04:36:33.267Z,5.63
2023-04-10T04:39:04.503Z,5.69
2023-04-10T04:41:32.748Z,5.59
2023-04-10T04:44:01.881Z,5.57
2023-04-10T04:46:31.963Z,5.78
2023-04-10T04:49:00.730Z,5.95
2023-04-10T04:51:37.718Z,6.01
2023-04-10T04:54:09.649Z,5.97
2023-04-10T04:56:41.950Z,6.28
2023-04-10T04:59:10.566Z,6.16
2023-04-10T05:01:39.458Z,6.07
2023-04-10T05:04:07.557Z,6.17
2023-04-10T05:06:35.537Z,6.34
2023-04-10T05:09:11.709Z,6.30
2023-04-10T05:11:43.960Z,6.35
2023-04-10T05:14:15.096Z,6.34
2023-04-10T05:16:47.587Z,6.58
2023-04-10T05:19:15.665Z,6.51
2023-04-10T05:21:48.777Z,6.56
2023-04-10T05:24:26.747Z,6.67
2023-04-10T05:27:00.824Z,6.73
2023-04-10T05:29:41.860Z,6.84
2023-04-10T05:32:15.568Z,6.76
2023-04-10T05:34:44.143Z,6.85
2023-04-10T05:37:13.465Z,7.27
2023-04-10T05:39:48.703Z,7.55
2023-04-10T05:42:21.549Z,7.76
2023-04-10T05:44:52.630Z,7.70
2023-04-10T05:47:22.920Z,7.99
2023-04-10T05:49:57.606Z,7.94
2023-04-10T05:52:25.422Z,8.26
2023-04-10T05:55:04.836Z,8.36
2023-04-10T05:57:36.130Z,8.66
2023-04-10T06:00:09.007Z,8.50
2023-04-10T06:02:47.076Z,8.73
2023-04-10T06:05:25.749Z,8.84
2023-04-10T06:08:02.583Z,9.00
2023-04-10T06:10:32.268Z,9.47
2023-04-10T06:13:10.638Z,9.63
2023-04-10T06:15:51.535Z,9.82
2023-04-10T06:18:29.622Z,10.07
2023-04-10T06:21:05.714Z,10.25
2023-04-10T06:23:36.137Z,10.31
2023-04-10T06:26:12.664Z,10.17
2023-04-10T06:28:42.681Z,10.22
2023-04-10T06:31:15.119Z,10.36
2023-04-10T06:33:46.863Z,10.43
2023-04-10T06:36:21.245Z,10.60
2023-04-10T06:38:56.831Z,10.99
2023-04-10T06:41:30.581Z,10.93
2023-04-10T06:44:08.727Z,11.67
2023-04-10T06:46:37.172Z,11.95
2023-04-10T06:49:12.727Z,12.09
2023-04-10T06:51:48.720Z,12.01
2023-04-10T06:54:17.695Z,12.18
2023-04-10T06:56:47.120Z,12.28
2023-04-10T07:04:34.884Z,12.93
2023-04-10T07:07:03.062Z,12.93
2023-04-10T07:09:32.710Z,13.03
2023-04-10T07:12:01.083Z,13.42
2023-04-10T07:14:31.081Z,13.81
2023-04-10T07:17:00.622Z,13.88
2023-04-10T07:19:29.364Z,13.89
2023-04-10T07:21:57.869Z,14.21
2023-04-10T07:24:39.793Z,14.48
2023-04-10T07:27:24.722Z,14.28
2023-04-10T07:29:57.607Z,14.57
2023-04-10T07:32:25.391Z,14.54
2023-04-10T07:37:31.934Z,14.78
2023-04-10T07:40:04.190Z,14.60
2023-04-10T07:42:35.115Z,14.49
2023-04-10T07:45:04.970Z,14.71
2023-04-10T07:47:41.737Z,14.91
2023-04-10T07:50:18.722Z,15.04
2023-04-10T07:52:49.133Z,15.07
2023-04-10T07:55:19.669Z,15.34
2023-04-10T07:57:54.818Z,15.70
2023-04-10T08:00:27.691Z,15.77
2023-04-10T08:03:00.093Z,16.24
2023-04-10T08:05:28.335Z,16.17
2023-04-10T08:07:58.695Z,15.76
2023-04-10T08:10:27.652Z,16.24
2023-04-10T08:15:46.391Z,16.25
2023-04-10T08:18:21.692Z,16.69
2023-04-10T08:20:49.141Z,16.94
2023-04-10T08:23:31.720Z,17.13
2023-04-10T08:25:59.981Z,17.17
2023-04-10T08:28:30.614Z,17.18
2023-04-10T08:31:05.687Z,17.48
2023-04-10T08:36:19.900Z,16.94
2023-04-10T08:38:49.874Z,17.22
2023-04-10T08:43:53.865Z,17.71
2023-04-10T08:46:27.744Z,17.60
2023-04-10T08:49:02.878Z,17.24
2023-04-10T08:51:39.626Z,17.41
2023-04-10T08:54:20.169Z,17.43
2023-04-10T08:56:51.983Z,17.59
2023-04-10T08:59:23.218Z,17.86
2023-04-10T09:02:03.424Z,18.20
2023-04-10T09:04:34.072Z,17.99
2023-04-10T09:07:12.710Z,17.97
2023-04-10T09:09:43.806Z,18.11
2023-04-10T09:12:13.070Z,18.32
2023-04-10T09:14:42.690Z,18.08
2023-04-10T09:17:20.913Z,18.44
2023-04-10T09:19:54.929Z,18.71
2023-04-10T09:22:36.543Z,18.88
2023-04-10T09:25:08.165Z,19.26
2023-04-10T09:27:45.690Z,19.29
2023-04-10T09:32:57.381Z,19.28
2023-04-10T09:35:38.408Z,18.80
2023-04-10T09:38:18.595Z,19.04
2023-04-10T09:40:54.880Z,19.07
2023-04-10T09:43:31.755Z,18.84
2023-04-10T09:46:01.531Z,19.07
2023-04-10T09:48:31.605Z,18.59
2023-04-10T09:51:02.058Z,19.24
2023-04-10T09:53:31.451Z,18.82
2023-04-10T09:56:00.761Z,18.39
2023-04-10T09:58:28.845Z,18.10
2023-04-10T10:00:59.858Z,18.42
2023-04-10T10:03:40.848Z,18.66
2023-04-10T10:06:14.728Z,18.28
2023-04-10T10:08:50.740Z,18.53
2023-04-10T10:11:21.637Z,18.23
2023-04-10T10:13:52.638Z,18.01
2023-04-10T10:16:29.883Z,18.72
2023-04-10T10:19:02.735Z,18.27
2023-04-10T10:21:37.667Z,18.21
2023-04-10T10:24:08.810Z,17.87
2023-04-10T10:26:40.486Z,18.47
2023-04-10T10:29:15.688Z,18.45
2023-04-10T10:31:46.317Z,18.32
2023-04-10T10:34:19.805Z,18.35
2023-04-10T10:36:50.998Z,18.24
2023-04-10T10:39:40.794Z,18.08
2023-04-10T10:42:23.965Z,17.52
2023-04-10T10:45:10.450Z,17.65
2023-04-10T10:47:51.887Z,17.83
2023-04-10T10:50:24.948Z,17.98
2023-04-10T10:52:55.798Z,17.91
2023-04-10T10:55:32.717Z,18.12
2023-04-10T10:58:08.790Z,18.16
2023-04-10T11:00:46.591Z,17.90
2023-04-10T11:03:16.045Z,17.50
2023-04-10T11:05:58.691Z,17.30
2023-04-10T11:08:36.030Z,17.32
2023-04-10T11:11:27.754Z,17.14
2023-04-10T11:14:04.976Z,17.00
2023-04-10T11:16:36.780Z,17.22
2023-04-10T11:19:14.778Z,16.97
2023-04-10T11:21:51.364Z,17.49
2023-04-10T11:24:19.805Z,17.64
2023-04-10T11:26:51.838Z,17.40
2023-04-10T11:29:29.950Z,17.62
2023-04-10T11:32:05.816Z,17.60
2023-04-10T11:34:44.175Z,17.55
2023-04-10T11:37:23.331Z,17.50
2023-04-10T11:40:11.713Z,17.57
2023-04-10T11:42:42.646Z,17.64
2023-04-10T11:45:28.848Z,17.53
2023-04-10T11:47:56.815Z,17.33
2023-04-10T11:53:07.735Z,17.78
2023-04-10T11:55:43.794Z,17.56
2023-04-10T11:58:22.155Z,17.23
2023-04-10T12:00:56.550Z,17.06
2023-04-10T12:03:33.816Z,16.95
2023-04-10T12:06:01.964Z,16.81
2023-04-10T12:08:33.140Z,16.84
2023-04-10T12:11:06.741Z,17.01
2023-04-10T12:13:34.687Z,16.71
2023-04-10T12:18:55.148Z,17.08
2023-04-10T12:21:37.688Z,17.17
2023-04-10T12:24:05.861Z,17.30
2023-04-10T12:26:36.433Z,16.86
2023-04-10T12:29:06.374Z,16.74
2023-04-10T12:31:34.857Z,16.80
2023-04-10T12:34:17.643Z,16.88
2023-04-10T12:36:51.715Z,16.89
2023-04-10T12:39:24.761Z,16.82
2023-04-10T12:42:04.853Z,16.85
2023-04-10T12:44:40.709Z,16.92
2023-04-10T12:47:10.280Z,16.90
2023-04-10T12:49:40.666Z,17.11
2023-04-10T12:52:22.756Z,17.09
2023-04-10T12:54:55.724Z,16.78
2023-04-10T12:57:32.719Z,16.81
2023-04-10T13:00:15.250Z,16.92
2023-04-10T13:02:46.909Z,16.91
2023-04-10T13:05:25.753Z,16.96
2023-04-10T13:07:55.046Z,17.35
2023-04-10T13:13:01.105Z,17.79
2023-04-10T13:15:35.024Z,17.71
2023-04-10T13:18:05.714Z,18.05
2023-04-10T13:20:41.359Z,17.80
2023-04-10T13:25:58.278Z,17.64
2023-04-10T13:28:26.813Z,17.88
2023-04-10T13:31:00.810Z,18.07
2023-04-10T13:33:36.535Z,18.03
2023-04-10T13:36:06.994Z,18.40
2023-04-10T13:41:17.708Z,18.59
2023-04-10T13:43:52.110Z,18.52
2023-04-10T13:46:19.882Z,18.91
2023-04-10T13:48:48.139Z,19.36
2023-04-10T13:51:18.187Z,19.35
2023-04-10T13:53:50.772Z,19.18
2023-04-10T13:56:19.879Z,18.39
2023-04-10T13:58:51.978Z,18.56
2023-04-10T14:04:11.673Z,19.01
2023-04-10T14:06:51.715Z,18.81
2023-04-10T14:12:09.629Z,19.39
2023-04-10T14:14:44.240Z,19.51
2023-04-10T14:19:51.756Z,19.34
2023-04-10T14:25:11.966Z,19.21
2023-04-10T14:27:50.880Z,18.83
2023-04-10T14:30:19.095Z,18.72
2023-04-10T14:32:57.830Z,18.51
2023-04-10T14:35:31.684Z,18.70
2023-04-10T14:38:03.729Z,18.55
2023-04-10T14:40:51.891Z,18.97
2023-04-10T14:43:20.868Z,18.74
2023-04-10T14:45:54.502Z,19.02
2023-04-10T14:48:30.353Z,19.06
2023-04-10T14:51:05.643Z,18.74
2023-04-10T14:53:40.233Z,19.02
2023-04-10T14:56:12.599Z,19.32
2023-04-10T14:58:40.813Z,18.99
2023-04-10T15:01:16.977Z,18.46
2023-04-10T15:03:49.255Z,18.48
2023-04-10T15:06:28.336Z,18.71
2023-04-10T15:11:38.148Z,19.00
2023-04-10T15:14:18.181Z,18.78
2023-04-10T15:19:28.078Z,18.79
2023-04-10T15:21:58.055Z,18.90
2023-04-10T15:24:30.692Z,18.64
2023-04-10T15:27:11.658Z,18.85
2023-04-10T15:29:49.839Z,18.95
2023-04-10T15:32:25.059Z,18.55
2023-04-10T15:34:59.798Z,18.72
2023-04-10T15:37:34.903Z,18.65
2023-04-10T15:40:14.064Z,18.64
2023-04-10T15:42:54.834Z,18.72
2023-04-10T15:45:23.633Z,18.63
2023-04-10T15:47:55.153Z,18.55
2023-04-10T15:55:46.679Z,18.93
2023-04-10T15:58:16.653Z,18.66
2023-04-10T16:00:44.471Z,18.50
2023-04-10T16:03:18.808Z,18.31
2023-04-10T16:08:28.055Z,18.61
2023-04-10T16:10:56.258Z,18.35
2023-04-10T16:13:33.331Z,18.36
2023-04-10T16:18:47.613Z,17.94
2023-04-10T16:21:22.697Z,18.39
2023-04-10T16:26:41.307Z,18.60
2023-04-10T16:29:10.997Z,18.26
2023-04-10T16:31:38.841Z,18.46
2023-04-10T16:34:13.133Z,18.41
2023-04-10T16:39:40.738Z,18.31
2023-04-10T16:42:09.871Z,18.13
2023-04-10T16:44:39.038Z,18.29
2023-04-10T16:47:21.033Z,18.49
2023-04-10T16:49:49.787Z,18.28
2023-04-10T16:52:19.087Z,17.97
2023-04-10T16:54:46.912Z,18.16
2023-04-10T16:57:27.056Z,18.13
2023-04-10T17:00:12.755Z,18.06
2023-04-10T17:02:43.235Z,17.94
2023-04-10T17:05:12.984Z,17.84
2023-04-10T17:07:49.742Z,17.86
2023-04-10T17:13:11.112Z,17.89
2023-04-10T17:15:39.952Z,17.95
2023-04-10T17:20:52.592Z,17.90
2023-04-10T17:23:20.489Z,17.89
2023-04-10T17:25:53.877Z,17.91
2023-04-10T17:28:22.300Z,17.81
2023-04-10T17:31:04.164Z,17.79
2023-04-10T17:33:38.130Z,17.85
2023-04-10T17:44:15.673Z,17.49
2023-04-10T17:46:43.733Z,17.38
2023-04-10T17:49:26.033Z,17.54
2023-04-10T17:52:04.431Z,17.58
2023-04-10T17:57:14.956Z,17.62
2023-04-10T17:59:45.199Z,17.77
2023-04-10T18:02:25.857Z,17.76
2023-04-10T18:05:05.759Z,17.24
2023-04-10T18:07:45.058Z,17.23
2023-04-10T18:10:17.221Z,17.14
2023-04-10T18:12:53.704Z,17.06
2023-04-10T18:15:30.676Z,17.26
2023-04-10T18:18:06.881Z,17.33
2023-04-10T18:20:41.382Z,17.05
2023-04-10T18:23:17.968Z,17.07
2023-04-10T18:25:57.033Z,17.09
2023-04-10T18:28:32.184Z,17.23
2023-04-10T18:31:06.907Z,16.77
2023-04-10T18:33:38.066Z,16.65
2023-04-10T18:36:08.012Z,16.78
2023-04-10T18:38:41.950Z,16.95
2023-04-10T18:41:16.727Z,16.83
2023-04-10T18:43:57.414Z,16.60
2023-04-10T18:46:38.063Z,16.80
2023-04-10T18:49:23.762Z,16.91
2023-04-10T18:51:59.838Z,16.80
2023-04-10T18:54:29.230Z,16.52
2023-04-10T18:57:01.038Z,16.30
2023-04-10T18:59:34.958Z,16.30
2023-04-10T19:04:52.031Z,16.23
2023-04-10T19:07:22.107Z,16.08
2023-04-10T19:09:56.030Z,15.97
2023-04-10T19:12:30.867Z,16.06
2023-04-10T19:14:59.657Z,16.18
2023-04-10T19:17:39.645Z,16.00
2023-04-10T19:20:08.724Z,15.61
2023-04-10T19:22:40.340Z,15.54
2023-04-10T19:25:15.981Z,15.65
2023-04-10T19:27:57.112Z,15.80
2023-04-10T19:30:26.827Z,15.80
2023-04-10T19:33:06.786Z,15.34
2023-04-10T19:35:34.638Z,15.67
2023-04-10T19:40:51.814Z,15.51
2023-04-10T19:43:19.300Z,15.47
2023-04-10T19:45:53.461Z,15.64
2023-04-10T19:48:21.278Z,15.70
2023-04-10T19:50:51.388Z,15.79
2023-04-10T19:56:08.404Z,15.59
2023-04-10T19:58:47.027Z,15.75
2023-04-10T20:01:14.869Z,15.56
2023-04-10T20:03:43.996Z,16.05
2023-04-10T20:06:15.167Z,16.15
2023-04-10T20:08:57.804Z,16.11
2023-04-10T20:11:31.720Z,15.51
2023-04-10T20:13:59.723Z,15.35
2023-04-10T20:16:27.451Z,15.21
2023-04-10T20:19:01.795Z,15.40
2023-04-10T20:21:32.322Z,15.37
2023-04-10T20:24:00.037Z,15.48
2023-04-10T20:29:08.020Z,15.53
2023-04-10T20:31:36.333Z,15.43
2023-04-10T20:34:04.552Z,15.48
2023-04-10T20:36:34.846Z,15.46
2023-04-10T20:39:02.701Z,15.30
2023-04-10T20:41:30.927Z,15.41
2023-04-10T20:44:04.861Z,15.42
2023-04-10T20:46:35.088Z,15.48
2023-04-10T20:49:03.019Z,15.32
2023-04-10T20:51:30.725Z,15.31
2023-04-10T20:54:00.172Z,15.22
2023-04-10T20:56:40.293Z,15.22
2023-04-10T20:59:11.858Z,15.13
2023-04-10T21:01:40.070Z,15.09
2023-04-10T21:04:09.146Z,14.78
2023-04-10T21:06:39.423Z,14.72
2023-04-10T21:09:09.959Z,14.57
2023-04-10T21:11:45.682Z,14.49
2023-04-10T21:14:13.927Z,14.36
2023-04-10T21:16:42.950Z,14.20
2023-04-10T21:19:11.749Z,14.05
2023-04-10T21:21:42.278Z,14.29
2023-04-10T21:24:09.830Z,14.00
2023-04-10T21:26:37.457Z,14.00
2023-04-10T21:29:11.788Z,13.80
2023-04-10T21:31:41.217Z,13.79
2023-04-10T21:34:10.768Z,13.74
2023-04-10T21:36:42.711Z,13.51
2023-04-10T21:39:12.717Z,13.49
2023-04-10T21:41:40.867Z,13.32
2023-04-10T21:44:08.982Z,13.80
2023-04-10T21:49:12.088Z,13.14
2023-04-10T21:51:41.355Z,13.08
2023-04-10T21:54:10.826Z,12.98
2023-04-10T21:56:41.163Z,12.79
2023-04-10T21:59:11.214Z,12.78
2023-04-10T22:01:41.892Z,12.72
2023-04-10T22:04:11.877Z,12.65
2023-04-10T22:06:39.816Z,12.67
2023-04-10T22:09:07.579Z,12.64
2023-04-10T22:11:39.356Z,12.54
2023-04-10T22:14:15.369Z,12.37
2023-04-10T22:16:46.783Z,12.34
2023-04-10T22:19:16.782Z,12.38
2023-04-10T22:21:45.087Z,12.19
2023-04-10T22:24:14.888Z,12.10
2023-04-10T22:26:46.043Z,12.07
2023-04-10T22:29:16.982Z,12.00
2023-04-10T22:31:44.803Z,12.19
2023-04-10T22:34:12.492Z,12.10
2023-04-10T22:36:40.510Z,11.85
2023-04-10T22:39:07.962Z,12.04
2023-04-10T22:41:35.605Z,11.95
2023-04-10T22:44:03.890Z,11.87
2023-04-10T22:46:31.990Z,11.75
2023-04-10T22:49:01.949Z,11.79
2023-04-10T22:51:29.659Z,11.75
2023-04-10T22:53:57.439Z,11.71
2023-04-10T22:56:29.789Z,11.54
2023-04-10T22:59:00.792Z,11.44
2023-04-10T23:01:29.653Z,11.44
2023-04-10T23:03:57.074Z,11.33
2023-04-10T23:06:24.793Z,11.41
2023-04-10T23:08:56.478Z,11.29
2023-04-10T23:11:25.829Z,11.43
2023-04-10T23:13:53.691Z,10.96
2023-04-10T23:16:21.202Z,11.18
2023-04-10T23:18:49.473Z,11.09
2023-04-10T23:21:17.528Z,10.96
2023-04-10T23:23:44.835Z,10.79
2023-04-10T23:26:12.484Z,10.87
2023-04-10T23:28:40.391Z,10.89
2023-04-10T23:31:09.260Z,10.89
2023-04-10T23:33:36.983Z,10.81
2023-04-10T23:36:05.014Z,10.79
2023-04-10T23:38:32.637Z,10.87
2023-04-10T23:41:03.063Z,10.80
2023-04-10T23:43:31.747Z,10.76
2023-04-10T23:46:00.058Z,10.50
2023-04-10T23:48:27.377Z,10.60
2023-04-10T23:51:07.792Z,10.67
2023-04-10T23:53:35.263Z,10.61
2023-04-10T23:56:03.055Z,10.57
2023-04-10T23:58:31.639Z,10.43
